createdAt,value
2018-04-08T00:01:11.257Z,34.60
2018-04-08T00:03:38.587Z,34.80
2018-04-08T00:06:06.739Z,35.20
2018-04-08T00:11:02.424Z,35.50
2018-04-08T00:15:58.804Z,36.50
2018-04-08T00:18:26.240Z,36.70
2018-04-08T00:23:21.864Z,37.20
2018-04-08T00:25:49.224Z,36.30
2018-04-08T00:28:17.320Z,36.00
2018-04-08T00:30:44.820Z,36.30
2018-04-08T00:33:13.027Z,36.60
2018-04-08T00:35:40.517Z,36.50
2018-04-08T00:38:07.868Z,36.60
2018-04-08T00:52:56.791Z,36.90
2018-04-08T00:55:24.292Z,36.50
2018-04-08T00:57:51.492Z,36.30
2018-04-08T01:00:18.852Z,35.80
2018-04-08T01:02:46.799Z,37.30
2018-04-08T01:07:42.147Z,37.10
2018-04-08T01:10:10.099Z,36.10
2018-04-08T01:12:37.512Z,38.30
2018-04-08T01:15:04.795Z,37.30
2018-04-08T01:17:32.719Z,37.10
2018-04-08T01:20:01.160Z,36.80
2018-04-08T01:22:28.500Z,37.40
2018-04-08T01:24:56.635Z,37.90
2018-04-08T01:27:24.036Z,37.90
2018-04-08T01:32:19.696Z,38.40
2018-04-08T01:37:15.414Z,38.40
2018-04-08T01:39:43.456Z,38.20
2018-04-08T01:42:10.791Z,37.20
2018-04-08T01:44:38.110Z,37.70
2018-04-08T01:49:34.460Z,37.90
2018-04-08T01:52:01.882Z,39.40
2018-04-08T01:54:29.247Z,38.70
2018-04-08T01:56:56.877Z,39.70
2018-04-08T01:59:24.217Z,39.00
2018-04-08T02:01:51.584Z,38.40
2018-04-08T02:04:19.214Z,37.90
2018-04-08T02:06:47.336Z,38.20
2018-04-08T02:09:14.745Z,39.30
2018-04-08T02:11:42.112Z,39.00
2018-04-08T02:14:09.453Z,38.80
2018-04-08T02:16:37.038Z,38.60
2018-04-08T02:19:04.399Z,38.60
2018-04-08T02:21:31.728Z,38.20
2018-04-08T02:23:59.395Z,38.90
2018-04-08T02:26:26.762Z,39.80
2018-04-08T02:28:54.060Z,39.70
2018-04-08T02:31:21.392Z,39.00
2018-04-08T02:33:48.827Z,39.10
2018-04-08T02:36:16.917Z,40.10
2018-04-08T02:38:44.250Z,40.40
2018-04-08T02:41:11.608Z,41.00
2018-04-08T02:43:39.020Z,39.10
2018-04-08T02:46:07.161Z,40.20
2018-04-08T02:53:31.112Z,39.60
2018-04-08T02:55:58.426Z,39.40
2018-04-08T03:00:54.017Z,38.70
2018-04-08T03:03:22.108Z,39.30
2018-04-08T03:05:49.667Z,40.40
2018-04-08T03:08:16.981Z,39.20
2018-04-08T03:10:45.163Z,40.40
2018-04-08T03:13:13.396Z,39.50
2018-04-08T03:20:37.987Z,40.80
2018-04-08T03:23:05.398Z,40.80
2018-04-08T03:25:33.488Z,40.70
2018-04-08T03:30:29.869Z,40.10
2018-04-08T03:32:57.472Z,39.50
2018-04-08T03:37:53.027Z,39.50
2018-04-08T03:40:21.195Z,41.30
2018-04-08T03:45:16.796Z,40.70
2018-04-08T03:50:13.176Z,40.40
2018-04-08T03:52:41.288Z,41.70
2018-04-08T03:55:08.632Z,40.60
2018-04-08T03:57:36.121Z,41.60
2018-04-08T04:02:32.116Z,40.60
2018-04-08T04:04:59.500Z,40.20
2018-04-08T04:07:26.864Z,41.10
2018-04-08T04:12:22.519Z,41.30
2018-04-08T04:17:18.976Z,40.40
2018-04-08T04:22:34.081Z,41.70
2018-04-08T04:25:18.532Z,41.60
2018-04-08T04:27:45.792Z,41.40
2018-04-08T04:30:13.302Z,41.40
2018-04-08T04:32:41.799Z,41.20
2018-04-08T04:35:09.143Z,41.90
2018-04-08T04:37:37.229Z,41.80
2018-04-08T04:45:01.886Z,41.70
2018-04-08T04:47:29.219Z,41.70
2018-04-08T04:49:58.124Z,42.10
2018-04-08T04:57:22.139Z,42.00
2018-04-08T05:02:17.799Z,42.60
2018-04-08T05:07:13.440Z,42.80
2018-04-08T05:09:41.259Z,42.30
2018-04-08T05:12:08.544Z,42.30
2018-04-08T05:17:04.227Z,42.60
2018-04-08T05:19:31.571Z,42.50
2018-04-08T05:21:59.661Z,42.00
2018-04-08T05:24:27.767Z,41.20
2018-04-08T05:29:24.152Z,41.80
2018-04-08T05:31:51.607Z,41.50
2018-04-08T05:39:16.228Z,42.10
2018-04-08T05:41:44.292Z,42.10
2018-04-08T05:46:39.992Z,41.80
2018-04-08T05:49:07.389Z,42.00
2018-04-08T05:51:35.527Z,41.40
2018-04-08T05:56:31.170Z,41.30
2018-04-08T06:01:27.569Z,41.30
2018-04-08T06:03:55.687Z,41.30
2018-04-08T06:08:51.376Z,40.20
2018-04-08T06:13:46.963Z,40.70
2018-04-08T06:16:15.116Z,39.40
2018-04-08T06:18:42.479Z,37.50
2018-04-08T06:21:10.610Z,37.80
2018-04-08T06:23:37.907Z,37.20
2018-04-08T06:26:06.032Z,36.80
2018-04-08T06:28:33.468Z,37.20
2018-04-08T06:31:01.605Z,36.50
2018-04-08T06:35:57.971Z,35.90
2018-04-08T06:38:25.404Z,35.50
2018-04-08T06:40:52.966Z,35.80
2018-04-08T06:43:21.040Z,35.50
2018-04-08T06:48:17.460Z,34.80
2018-04-08T06:50:44.860Z,34.50
2018-04-08T06:55:41.252Z,34.00
2018-04-08T07:00:36.900Z,34.80
2018-04-08T07:05:33.301Z,33.70
2018-04-08T07:08:01.531Z,33.60
2018-04-08T07:10:28.846Z,33.80
2018-04-08T07:12:56.448Z,33.20
2018-04-08T07:15:23.783Z,32.50
2018-04-08T07:17:51.879Z,32.60
2018-04-08T07:22:47.523Z,32.40
2018-04-08T07:25:15.610Z,32.10
2018-04-08T07:27:43.103Z,31.80
2018-04-08T07:30:10.575Z,31.70
2018-04-08T07:32:37.952Z,31.30
2018-04-08T07:35:05.360Z,31.40
2018-04-08T07:37:32.663Z,30.80
2018-04-08T07:42:29.084Z,31.80
2018-04-08T07:44:56.487Z,30.40
2018-04-08T07:47:24.574Z,29.80
2018-04-08T07:52:20.239Z,29.70
2018-04-08T07:57:15.847Z,29.20
2018-04-08T08:02:12.799Z,29.10
2018-04-08T08:04:40.102Z,29.20
2018-04-08T08:07:08.708Z,28.50
2018-04-08T08:09:36.820Z,29.00
2018-04-08T08:12:04.183Z,28.60
2018-04-08T08:14:32.327Z,28.60
2018-04-08T08:19:27.968Z,28.00
2018-04-08T08:24:24.317Z,27.70
2018-04-08T08:26:52.440Z,27.70
2018-04-08T08:29:19.820Z,27.70
2018-04-08T08:31:47.892Z,27.50
2018-04-08T08:36:43.924Z,26.70
2018-04-08T08:39:11.267Z,26.40
2018-04-08T08:41:38.703Z,26.10
2018-04-08T08:44:06.776Z,26.20
2018-04-08T08:49:03.720Z,26.20
2018-04-08T08:53:59.571Z,25.30
2018-04-08T08:56:26.919Z,25.20
2018-04-08T08:58:54.441Z,24.90
2018-04-08T09:01:22.591Z,25.20
2018-04-08T09:03:49.975Z,24.60
2018-04-08T09:06:18.111Z,25.40
2018-04-08T09:11:13.776Z,24.10
2018-04-08T09:13:41.140Z,23.80
2018-04-08T09:18:36.877Z,23.80
2018-04-08T09:23:35.819Z,22.90
2018-04-08T09:28:32.288Z,22.70
2018-04-08T09:35:56.536Z,22.00
2018-04-08T09:38:28.974Z,21.50
2018-04-08T09:40:57.949Z,21.40
2018-04-08T09:43:26.092Z,22.00
2018-04-08T09:45:53.554Z,21.90
2018-04-08T09:48:20.969Z,21.70
2018-04-08T09:50:48.341Z,21.80
2018-04-08T09:53:15.720Z,21.60
2018-04-08T09:55:43.100Z,21.00
2018-04-08T09:58:11.553Z,20.80
2018-04-08T10:03:48.344Z,20.30
2018-04-08T10:06:15.774Z,20.60
2018-04-08T10:08:43.169Z,20.30
2018-04-08T10:11:10.657Z,20.00
2018-04-08T10:18:35.168Z,19.80
2018-04-08T10:21:02.748Z,19.70
2018-04-08T10:25:58.612Z,19.60
2018-04-08T10:30:54.467Z,18.80
2018-04-08T10:33:25.793Z,18.40
2018-04-08T10:35:54.379Z,18.40
2018-04-08T10:38:21.746Z,18.00
2018-04-08T10:40:50.070Z,18.60
2018-04-08T10:43:21.200Z,17.90
2018-04-08T10:45:49.480Z,18.10
2018-04-08T10:48:21.263Z,18.40
2018-04-08T10:50:50.508Z,17.70
2018-04-08T10:53:18.118Z,17.70
2018-04-08T10:55:48.358Z,17.40
2018-04-08T10:58:16.707Z,17.40
2018-04-08T11:00:46.068Z,17.00
2018-04-08T11:03:13.463Z,16.70
2018-04-08T11:05:41.744Z,16.40
2018-04-08T11:08:09.276Z,15.80
2018-04-08T11:13:05.081Z,15.70
2018-04-08T11:15:32.484Z,16.10
2018-04-08T11:18:00.632Z,16.00
2018-04-08T11:20:28.030Z,16.20
2018-04-08T11:25:24.616Z,14.60
2018-04-08T11:30:21.128Z,14.60
2018-04-08T11:35:16.958Z,15.20
2018-04-08T11:37:45.481Z,14.90
2018-04-08T11:40:12.960Z,14.80
2018-04-08T11:45:09.959Z,14.50
2018-04-08T11:47:37.616Z,15.30
2018-04-08T11:50:05.007Z,15.10
2018-04-08T11:52:32.447Z,15.00
2018-04-08T11:55:00.733Z,15.00
2018-04-08T11:57:28.928Z,14.60
2018-04-08T11:59:56.314Z,14.30
2018-04-08T12:02:24.570Z,14.40
2018-04-08T12:04:51.974Z,14.70
2018-04-08T12:07:20.709Z,14.50
2018-04-08T12:09:48.183Z,14.30
2018-04-08T12:12:15.569Z,14.90
2018-04-08T12:14:42.965Z,15.20
2018-04-08T12:17:10.391Z,15.50
2018-04-08T12:19:38.783Z,15.10
2018-04-08T12:22:07.184Z,14.60
2018-04-08T12:24:35.329Z,15.20
2018-04-08T12:27:06.460Z,16.20
2018-04-08T12:29:33.980Z,18.50
2018-04-08T12:32:01.326Z,18.00
2018-04-08T12:34:28.707Z,16.90
2018-04-08T12:36:56.585Z,16.80
2018-04-08T12:39:23.969Z,17.50
2018-04-08T12:41:51.341Z,16.70
2018-04-08T12:44:18.777Z,18.30
2018-04-08T12:46:46.232Z,18.20
2018-04-08T12:49:13.689Z,18.50
2018-04-08T12:51:41.469Z,18.10
2018-04-08T12:54:08.986Z,18.10
2018-04-08T12:56:36.372Z,17.30
2018-04-08T12:59:03.804Z,17.30
2018-04-08T13:01:31.924Z,16.90
2018-04-08T13:06:28.888Z,18.00
2018-04-08T13:08:56.347Z,17.30
2018-04-08T13:13:53.040Z,17.70
2018-04-08T13:16:21.800Z,16.60
2018-04-08T13:18:49.168Z,15.40
2018-04-08T13:21:16.637Z,15.10
2018-04-08T13:23:43.983Z,15.40
2018-04-08T13:26:11.486Z,16.70
2018-04-08T13:28:45.827Z,16.10
2018-04-08T13:31:13.200Z,17.20
2018-04-08T13:36:08.912Z,17.40
2018-04-08T13:41:04.678Z,16.30
2018-04-08T13:43:34.723Z,16.20
2018-04-08T13:46:02.039Z,17.10
2018-04-08T13:48:30.127Z,16.80
2018-04-08T13:55:54.887Z,17.00
2018-04-08T14:00:51.920Z,17.00
2018-04-08T14:05:47.646Z,17.30
2018-04-08T14:08:15.768Z,18.00
2018-04-08T14:10:43.647Z,18.20
2018-04-08T14:13:11.926Z,18.00
2018-04-08T14:18:08.280Z,18.20
2018-04-08T14:20:35.699Z,18.30
2018-04-08T14:23:03.803Z,18.60
2018-04-08T14:25:31.365Z,18.40
2018-04-08T14:30:26.960Z,18.10
2018-04-08T14:32:54.351Z,19.00
2018-04-08T14:37:50.035Z,18.20
2018-04-08T14:40:17.396Z,18.50
2018-04-08T14:42:45.527Z,18.80
2018-04-08T14:45:13.627Z,19.00
2018-04-08T14:47:41.012Z,18.90
2018-04-08T14:50:08.363Z,19.50
2018-04-08T14:52:35.704Z,19.90
2018-04-08T14:55:03.869Z,18.70
2018-04-08T14:57:31.971Z,19.00
2018-04-08T14:59:59.433Z,18.50
2018-04-08T15:02:26.803Z,18.90
2018-04-08T15:04:54.167Z,20.80
2018-04-08T15:07:22.296Z,19.10
2018-04-08T15:09:49.692Z,18.80
2018-04-08T15:12:17.165Z,19.30
2018-04-08T15:14:44.574Z,18.30
2018-04-08T15:17:11.916Z,19.50
2018-04-08T15:19:39.436Z,19.20
2018-04-08T15:22:06.876Z,18.40
2018-04-08T15:24:35.082Z,19.80
2018-04-08T15:27:02.463Z,19.60
2018-04-08T15:29:29.893Z,19.50
2018-04-08T15:31:57.411Z,19.90
2018-04-08T15:34:25.543Z,18.70
2018-04-08T15:39:21.163Z,18.70
2018-04-08T15:41:48.572Z,20.60
2018-04-08T15:44:19.057Z,19.90
2018-04-08T15:46:46.481Z,20.20
2018-04-08T15:49:13.840Z,21.00
2018-04-08T15:51:41.324Z,20.00
2018-04-08T15:54:08.703Z,20.80
2018-04-08T15:56:36.920Z,19.50
2018-04-08T16:04:02.045Z,18.40
2018-04-08T16:06:30.967Z,19.00
2018-04-08T16:11:26.637Z,19.50
2018-04-08T16:16:22.429Z,19.50
2018-04-08T16:18:51.308Z,19.60
2018-04-08T16:23:46.975Z,20.60
2018-04-08T16:28:42.669Z,20.70
2018-04-08T16:33:38.354Z,20.40
2018-04-08T16:36:05.770Z,21.20
2018-04-08T16:38:35.548Z,21.50
2018-04-08T16:41:05.556Z,21.30
2018-04-08T16:43:34.036Z,22.20
2018-04-08T16:48:32.173Z,21.30
2018-04-08T16:51:00.175Z,21.80
2018-04-08T16:53:28.361Z,21.50
2018-04-08T16:55:56.031Z,21.60
2018-04-08T16:58:24.216Z,21.60
2018-04-08T17:03:19.935Z,22.10
2018-04-08T17:05:48.098Z,22.30
2018-04-08T17:10:44.746Z,22.80
2018-04-08T17:13:12.112Z,23.10
2018-04-08T17:18:07.853Z,22.80
2018-04-08T17:23:04.285Z,23.30
2018-04-08T17:25:34.230Z,23.50
2018-04-08T17:28:02.822Z,23.70
2018-04-08T17:30:30.207Z,25.10
2018-04-08T17:32:57.626Z,24.40
2018-04-08T17:35:25.016Z,23.90
2018-04-08T17:37:52.521Z,23.40
2018-04-08T17:40:20.524Z,24.10
2018-04-08T17:42:48.680Z,24.30
2018-04-08T17:45:19.240Z,24.10
2018-04-08T17:47:48.065Z,25.10
2018-04-08T17:50:15.505Z,25.30
2018-04-08T18:00:07.963Z,27.00
2018-04-08T18:02:36.100Z,26.70
2018-04-08T18:05:04.652Z,27.10
2018-04-08T18:07:32.020Z,26.90
2018-04-08T18:09:59.377Z,27.30
2018-04-08T18:14:55.037Z,27.50
2018-04-08T18:17:23.124Z,27.60
2018-04-08T18:19:51.333Z,27.80
2018-04-08T18:24:46.980Z,27.90
2018-04-08T18:27:14.811Z,27.80
2018-04-08T18:29:43.081Z,27.60
2018-04-08T18:32:10.496Z,27.60
2018-04-08T18:37:06.179Z,28.10
2018-04-08T18:39:35.105Z,28.00
2018-04-08T18:44:30.826Z,28.30
2018-04-08T18:46:58.196Z,28.50
2018-04-08T18:49:26.320Z,28.50
2018-04-08T18:51:55.097Z,28.90
2018-04-08T18:54:23.217Z,28.90
2018-04-08T18:59:21.056Z,29.20
2018-04-08T19:01:48.435Z,29.30
2018-04-08T19:04:16.569Z,29.40
2018-04-08T19:06:43.908Z,29.30
2018-04-08T19:09:12.227Z,29.20
2018-04-08T19:11:39.600Z,29.50
2018-04-08T19:16:36.641Z,29.70
2018-04-08T19:19:05.860Z,29.70
2018-04-08T19:24:01.578Z,30.00
2018-04-08T19:26:28.957Z,30.00
2018-04-08T19:33:52.933Z,30.00
2018-04-08T19:36:20.472Z,30.20
2018-04-08T19:38:47.818Z,30.20
2018-04-08T19:41:15.980Z,30.30
2018-04-08T19:46:12.584Z,30.40
2018-04-08T19:48:40.847Z,30.40
2018-04-08T19:51:10.235Z,30.40
2018-04-08T19:56:11.335Z,30.50
2018-04-08T20:01:07.212Z,30.50
2018-04-08T20:06:04.300Z,31.20
2018-04-08T20:08:32.925Z,31.30
2018-04-08T20:11:01.522Z,30.80
2018-04-08T20:13:29.664Z,30.70
2018-04-08T20:15:57.074Z,30.60
2018-04-08T20:18:25.229Z,30.80
2018-04-08T20:23:20.998Z,31.10
2018-04-08T20:25:49.101Z,30.70
2018-04-08T20:30:45.529Z,30.30
2018-04-08T20:33:13.013Z,30.30
2018-04-08T20:38:08.901Z,30.80
2018-04-08T20:40:37.088Z,30.70
2018-04-08T20:43:04.497Z,30.00
2018-04-08T20:45:32.776Z,30.30
2018-04-08T20:48:00.868Z,30.00
2018-04-08T20:50:29.020Z,30.00
2018-04-08T20:52:57.204Z,30.20
2018-04-08T20:55:25.306Z,30.10
2018-04-08T20:57:52.708Z,30.30
2018-04-08T21:00:20.836Z,30.50
2018-04-08T21:02:48.240Z,30.70
2018-04-08T21:05:15.617Z,30.30
2018-04-08T21:07:43.066Z,30.10
2018-04-08T21:10:11.199Z,30.10
2018-04-08T21:12:38.592Z,30.70
2018-04-08T21:15:06.750Z,30.60
2018-04-08T21:17:34.180Z,30.80
2018-04-08T21:20:01.555Z,31.00
2018-04-08T21:22:28.943Z,31.30
2018-04-08T21:24:56.442Z,31.30
2018-04-08T21:27:24.833Z,31.70
2018-04-08T21:32:20.514Z,31.80
2018-04-08T21:34:47.885Z,33.00
2018-04-08T21:37:15.236Z,32.40
2018-04-08T21:39:42.618Z,32.10
2018-04-08T21:42:10.708Z,32.10
2018-04-08T21:44:38.155Z,32.60
2018-04-08T21:49:33.862Z,33.00
2018-04-08T21:52:01.993Z,32.50
2018-04-08T21:57:05.038Z,33.00
2018-04-08T21:59:39.261Z,33.20
2018-04-08T22:04:35.729Z,33.30
2018-04-08T22:07:03.940Z,33.50
2018-04-08T22:11:59.682Z,33.20
2018-04-08T22:14:27.080Z,34.10
2018-04-08T22:16:54.656Z,34.40
2018-04-08T22:21:52.265Z,33.60
2018-04-08T22:24:19.699Z,33.50
2018-04-08T22:26:47.054Z,33.70
2018-04-08T22:29:15.178Z,34.00
2018-04-08T22:31:43.286Z,34.00
2018-04-08T22:34:10.677Z,34.30
2018-04-08T22:36:38.752Z,33.80
2018-04-08T22:39:06.951Z,34.10
2018-04-08T22:41:35.233Z,34.10
2018-04-08T22:44:03.353Z,34.50
2018-04-08T22:46:30.774Z,34.50
2018-04-08T22:48:58.148Z,34.40
2018-04-08T22:53:54.629Z,35.40
2018-04-08T23:01:19.468Z,35.10
2018-04-08T23:03:46.812Z,35.00
2018-04-08T23:06:14.168Z,36.20
2018-04-08T23:08:42.264Z,35.80
2018-04-08T23:13:37.851Z,35.50
2018-04-08T23:16:05.988Z,36.20
2018-04-08T23:18:33.335Z,35.80
2018-04-08T23:21:01.438Z,36.10
2018-04-08T23:23:28.815Z,35.80
2018-04-08T23:25:56.907Z,36.00
2018-04-08T23:28:24.989Z,35.90
2018-04-08T23:30:53.286Z,36.30
2018-04-08T23:33:20.660Z,36.10
2018-04-08T23:45:41.928Z,36.80
2018-04-08T23:48:09.344Z,36.70
2018-04-08T23:50:36.664Z,36.10
2018-04-08T23:55:33.036Z,36.20
2018-04-08T23:58:01.202Z,36.40
